createdAt,value
2023-05-05T00:01:20.385Z,16.00
2023-05-05T00:03:48.862Z,16.00
2023-05-05T00:06:17.306Z,15.90
2023-05-05T00:08:46.308Z,15.80
2023-05-05T00:11:14.609Z,15.80
2023-05-05T00:13:44.307Z,15.70
2023-05-05T00:16:12.549Z,15.60
2023-05-05T00:18:40.760Z,15.60
2023-05-05T00:21:09.082Z,15.50
2023-05-05T00:23:37.374Z,15.40
2023-05-05T00:26:05.565Z,15.40
2023-05-05T00:28:33.906Z,15.40
2023-05-05T00:31:03.618Z,15.40
2023-05-05T00:33:31.934Z,15.30
2023-05-05T00:36:00.154Z,15.30
2023-05-05T00:38:28.780Z,15.30
2023-05-05T00:40:57.081Z,15.30
2023-05-05T00:43:25.255Z,15.30
2023-05-05T00:46:01.138Z,15.40
2023-05-05T00:48:31.816Z,15.40
2023-05-05T00:51:01.178Z,15.40
2023-05-05T00:53:30.006Z,15.40
2023-05-05T00:55:58.198Z,15.40
2023-05-05T00:58:27.474Z,15.30
2023-05-05T01:00:56.523Z,15.30
2023-05-05T01:03:25.051Z,15.30
2023-05-05T01:06:05.896Z,15.30
2023-05-05T01:08:48.090Z,15.30
2023-05-05T01:11:26.380Z,15.20
2023-05-05T01:14:02.680Z,15.30
2023-05-05T01:16:34.299Z,15.30
2023-05-05T01:19:15.670Z,15.30
2023-05-05T01:21:50.950Z,15.30
2023-05-05T01:24:46.804Z,15.40
2023-05-05T01:27:40.951Z,15.40
2023-05-05T01:30:21.562Z,15.40
2023-05-05T01:32:55.380Z,15.40
2023-05-05T01:35:30.736Z,15.50
2023-05-05T01:38:04.127Z,15.50
2023-05-05T01:40:38.941Z,15.50
2023-05-05T01:43:08.946Z,15.60
2023-05-05T01:45:41.026Z,15.60
2023-05-05T01:48:12.533Z,15.70
2023-05-05T01:50:42.834Z,15.70
2023-05-05T01:53:12.809Z,15.70
2023-05-05T01:55:42.852Z,15.70
2023-05-05T01:58:12.075Z,15.70
2023-05-05T02:00:41.757Z,15.70
2023-05-05T02:03:13.649Z,15.60
2023-05-05T02:05:43.219Z,15.50
2023-05-05T02:08:12.610Z,15.50
2023-05-05T02:10:41.322Z,15.40
2023-05-05T02:13:12.508Z,15.30
2023-05-05T02:15:41.479Z,15.20
2023-05-05T02:18:12.016Z,15.20
2023-05-05T02:20:42.046Z,15.20
2023-05-05T02:23:10.769Z,15.20
2023-05-05T02:25:43.038Z,15.10
2023-05-05T02:28:19.581Z,15.10
2023-05-05T02:30:56.666Z,14.90
2023-05-05T02:33:27.945Z,14.90
2023-05-05T02:35:57.734Z,14.80
2023-05-05T02:38:29.740Z,14.70
2023-05-05T02:41:00.421Z,14.60
2023-05-05T02:43:31.068Z,14.60
2023-05-05T02:45:59.164Z,14.50
2023-05-05T02:48:29.680Z,14.40
2023-05-05T02:50:58.185Z,14.40
2023-05-05T02:53:28.093Z,14.40
2023-05-05T02:56:02.895Z,14.30
2023-05-05T02:58:35.772Z,14.30
2023-05-05T03:01:12.568Z,14.30
2023-05-05T03:03:48.513Z,14.20
2023-05-05T03:06:20.100Z,14.20
2023-05-05T03:08:54.815Z,14.20
2023-05-05T03:11:28.749Z,14.20
2023-05-05T03:14:05.462Z,14.10
2023-05-05T03:16:35.728Z,14.10
2023-05-05T03:19:06.569Z,14.10
2023-05-05T03:21:35.159Z,14.00
2023-05-05T03:24:13.364Z,14.00
2023-05-05T03:26:41.585Z,14.00
2023-05-05T03:29:09.815Z,14.00
2023-05-05T03:31:38.322Z,13.90
2023-05-05T03:34:08.440Z,13.90
2023-05-05T03:36:36.879Z,13.90
2023-05-05T03:39:05.432Z,13.90
2023-05-05T03:41:33.805Z,13.90
2023-05-05T03:44:02.256Z,13.80
2023-05-05T03:46:30.735Z,13.80
2023-05-05T03:48:58.991Z,13.70
2023-05-05T03:51:31.714Z,13.80
2023-05-05T03:54:00.162Z,13.70
2023-05-05T03:56:28.289Z,13.70
2023-05-05T03:58:56.454Z,13.70
2023-05-05T04:01:24.596Z,13.70
2023-05-05T04:03:52.915Z,13.70
2023-05-05T04:06:21.221Z,13.70
2023-05-05T04:08:50.767Z,13.70
2023-05-05T04:11:19.087Z,13.70
2023-05-05T04:13:48.543Z,13.60
2023-05-05T04:16:16.726Z,13.60
2023-05-05T04:18:45.194Z,13.60
2023-05-05T04:21:13.382Z,13.50
2023-05-05T04:23:41.730Z,13.50
2023-05-05T04:26:11.421Z,13.50
2023-05-05T04:28:39.716Z,13.50
2023-05-05T04:31:07.995Z,13.50
2023-05-05T04:33:36.120Z,13.40
2023-05-05T04:36:04.441Z,13.40
2023-05-05T04:38:32.859Z,13.50
2023-05-05T04:41:01.110Z,13.40
2023-05-05T04:43:30.972Z,13.40
2023-05-05T04:45:59.486Z,13.30
2023-05-05T04:48:27.749Z,13.30
2023-05-05T04:50:55.895Z,13.30
2023-05-05T04:53:24.061Z,13.40
2023-05-05T04:55:53.413Z,13.40
2023-05-05T04:58:21.574Z,13.30
2023-05-05T05:00:51.165Z,13.40
2023-05-05T05:03:19.459Z,13.40
2023-05-05T05:05:47.780Z,13.40
2023-05-05T05:08:17.060Z,13.40
2023-05-05T05:10:45.301Z,13.50
2023-05-05T05:13:13.772Z,13.40
2023-05-05T05:15:42.346Z,13.50
2023-05-05T05:18:12.169Z,13.50
2023-05-05T05:20:40.359Z,13.50
2023-05-05T05:23:08.521Z,13.60
2023-05-05T05:25:36.801Z,13.70
2023-05-05T05:28:09.487Z,13.60
2023-05-05T05:30:38.662Z,13.70
2023-05-05T05:33:07.293Z,13.70
2023-05-05T05:35:37.053Z,13.70
2023-05-05T05:38:05.398Z,13.80
2023-05-05T05:40:33.677Z,13.90
2023-05-05T05:43:02.873Z,14.00
2023-05-05T05:45:31.159Z,14.10
2023-05-05T05:47:59.492Z,14.20
2023-05-05T05:50:28.750Z,14.30
2023-05-05T05:52:58.449Z,14.50
2023-05-05T05:55:26.593Z,14.70
2023-05-05T05:57:55.280Z,15.10
2023-05-05T06:00:23.546Z,15.40
2023-05-05T06:02:52.440Z,15.50
2023-05-05T06:05:20.609Z,16.50
2023-05-05T06:07:48.813Z,17.90
2023-05-05T06:10:26.477Z,18.40
2023-05-05T06:12:56.394Z,18.00
2023-05-05T06:15:25.873Z,17.40
2023-05-05T06:17:54.138Z,17.10
2023-05-05T06:20:22.523Z,16.80
2023-05-05T06:22:50.753Z,16.80
2023-05-05T06:25:20.346Z,16.90
2023-05-05T06:27:48.513Z,17.00
2023-05-05T06:30:16.923Z,17.20
2023-05-05T06:32:45.074Z,17.30
2023-05-05T06:35:13.438Z,17.40
2023-05-05T06:37:41.854Z,17.30
2023-05-05T06:40:11.969Z,17.00
2023-05-05T06:42:41.467Z,17.00
2023-05-05T06:45:10.402Z,16.90
2023-05-05T06:47:39.125Z,16.80
2023-05-05T06:50:09.515Z,16.80
2023-05-05T06:52:37.924Z,17.00
2023-05-05T06:55:06.862Z,17.10
2023-05-05T06:57:35.102Z,17.40
2023-05-05T07:00:09.909Z,17.40
2023-05-05T07:02:38.668Z,17.30
2023-05-05T07:05:07.705Z,17.50
2023-05-05T07:07:36.377Z,17.80
2023-05-05T07:10:04.916Z,18.00
2023-05-05T07:12:33.220Z,18.00
2023-05-05T07:15:07.026Z,17.90
2023-05-05T07:17:45.392Z,18.00
2023-05-05T07:20:13.930Z,18.30
2023-05-05T07:22:42.296Z,18.30
2023-05-05T07:25:10.891Z,18.40
2023-05-05T07:27:39.710Z,18.50
2023-05-05T07:30:13.972Z,18.70
2023-05-05T07:32:45.053Z,18.70
2023-05-05T07:35:13.705Z,19.00
2023-05-05T07:37:42.188Z,19.30
2023-05-05T07:40:11.153Z,19.30
2023-05-05T07:42:39.583Z,19.20
2023-05-05T07:45:08.886Z,19.50
2023-05-05T07:47:37.167Z,19.70
2023-05-05T07:50:08.566Z,20.00
2023-05-05T07:52:46.651Z,20.20
2023-05-05T07:55:18.097Z,20.20
2023-05-05T07:57:46.227Z,20.40
2023-05-05T08:00:15.668Z,20.40
2023-05-05T08:02:44.086Z,20.20
2023-05-05T08:05:14.101Z,20.20
2023-05-05T08:07:42.371Z,20.30
2023-05-05T08:10:12.397Z,20.00
2023-05-05T08:12:41.446Z,20.10
2023-05-05T08:15:10.406Z,19.80
2023-05-05T08:17:47.214Z,19.60
2023-05-05T08:20:17.260Z,19.70
2023-05-05T08:22:45.826Z,20.10
2023-05-05T08:25:14.802Z,20.40
2023-05-05T08:27:44.358Z,20.20
2023-05-05T08:30:13.427Z,20.10
2023-05-05T08:32:41.761Z,20.00
2023-05-05T08:35:10.769Z,19.90
2023-05-05T08:37:40.614Z,20.10
2023-05-05T08:40:12.200Z,20.00
2023-05-05T08:42:40.693Z,19.90
2023-05-05T08:45:11.073Z,19.90
2023-05-05T08:47:40.258Z,19.80
2023-05-05T08:50:11.955Z,19.90
2023-05-05T08:52:44.376Z,20.20
2023-05-05T08:55:19.040Z,20.40
2023-05-05T08:57:52.677Z,20.20
2023-05-05T09:00:21.718Z,20.10
2023-05-05T09:02:50.749Z,20.00
2023-05-05T09:05:19.361Z,20.40
2023-05-05T09:07:49.631Z,20.70
2023-05-05T09:10:18.088Z,20.50
2023-05-05T09:12:46.687Z,20.40
2023-05-05T09:15:16.317Z,20.50
2023-05-05T09:17:44.721Z,20.50
2023-05-05T09:20:15.377Z,20.50
2023-05-05T09:22:46.739Z,20.50
2023-05-05T09:25:18.298Z,20.20
2023-05-05T09:27:48.592Z,20.20
2023-05-05T09:30:19.187Z,20.20
2023-05-05T09:32:49.075Z,20.20
2023-05-05T09:35:18.230Z,20.40
2023-05-05T09:37:46.811Z,20.40
2023-05-05T09:40:20.116Z,20.60
2023-05-05T09:42:48.891Z,20.40
2023-05-05T09:45:28.323Z,20.30
2023-05-05T09:48:00.336Z,20.10
2023-05-05T09:50:46.383Z,20.00
2023-05-05T09:53:14.752Z,20.00
2023-05-05T09:55:54.037Z,19.80
2023-05-05T09:58:26.062Z,20.10
2023-05-05T10:00:55.101Z,20.10
2023-05-05T10:03:23.992Z,20.30
2023-05-05T10:05:55.671Z,20.10
2023-05-05T10:08:26.011Z,20.00
2023-05-05T10:10:57.141Z,19.80
2023-05-05T10:13:26.261Z,19.80
2023-05-05T10:15:55.740Z,19.60
2023-05-05T10:18:25.766Z,19.50
2023-05-05T10:20:59.176Z,19.60
2023-05-05T10:23:33.096Z,19.70
2023-05-05T10:26:06.793Z,19.40
2023-05-05T10:28:38.419Z,19.20
2023-05-05T10:31:24.259Z,18.80
2023-05-05T10:33:55.980Z,18.60
2023-05-05T10:36:25.519Z,18.50
2023-05-05T10:38:57.348Z,18.40
2023-05-05T10:41:27.387Z,18.10
2023-05-05T10:43:57.800Z,17.80
2023-05-05T10:46:27.877Z,17.60
2023-05-05T10:49:03.805Z,17.50
2023-05-05T10:51:42.449Z,17.20
2023-05-05T10:54:18.255Z,16.80
2023-05-05T10:56:48.811Z,16.40
2023-05-05T10:59:44.607Z,16.20
2023-05-05T11:02:23.607Z,15.80
2023-05-05T11:05:14.334Z,15.70
2023-05-05T11:07:43.587Z,15.40
2023-05-05T11:10:13.046Z,15.40
2023-05-05T11:13:20.699Z,15.30
2023-05-05T11:15:49.936Z,15.30
2023-05-05T11:18:36.499Z,15.30
2023-05-05T11:21:16.884Z,15.20
2023-05-05T11:23:46.874Z,15.10
2023-05-05T11:26:16.293Z,15.00
2023-05-05T11:29:02.763Z,14.90
2023-05-05T11:31:32.079Z,14.50
2023-05-05T11:34:28.775Z,14.60
2023-05-05T11:37:03.267Z,14.60
2023-05-05T11:39:42.057Z,14.80
2023-05-05T11:42:25.607Z,14.80
2023-05-05T11:44:56.040Z,14.80
2023-05-05T11:47:31.838Z,14.70
2023-05-05T11:50:00.858Z,14.80
2023-05-05T11:52:28.991Z,14.90
2023-05-05T11:55:02.478Z,14.90
2023-05-05T11:57:31.718Z,15.10
2023-05-05T12:00:03.499Z,15.20
2023-05-05T12:02:31.812Z,15.20
2023-05-05T12:05:01.563Z,15.20
2023-05-05T12:07:31.556Z,15.10
2023-05-05T12:10:00.085Z,15.20
2023-05-05T12:12:39.537Z,15.10
2023-05-05T12:15:10.325Z,15.10
2023-05-05T12:17:40.963Z,15.00
2023-05-05T12:20:11.101Z,15.00
2023-05-05T12:22:39.721Z,15.00
2023-05-05T12:25:08.992Z,15.00
2023-05-05T12:27:37.103Z,15.10
2023-05-05T12:30:19.055Z,15.00
2023-05-05T12:32:47.259Z,15.00
2023-05-05T12:35:16.073Z,15.10
2023-05-05T12:37:45.425Z,15.10
2023-05-05T12:40:47.981Z,15.10
2023-05-05T12:43:26.498Z,15.10
2023-05-05T12:46:07.879Z,15.10
2023-05-05T12:48:39.143Z,15.20
2023-05-05T12:51:16.085Z,15.20
2023-05-05T12:53:45.440Z,15.20
2023-05-05T12:56:33.559Z,15.20
2023-05-05T12:59:02.337Z,15.10
2023-05-05T13:01:32.191Z,15.20
2023-05-05T13:04:08.190Z,15.20
2023-05-05T13:06:37.734Z,15.30
2023-05-05T13:09:06.743Z,15.30
2023-05-05T13:11:38.334Z,15.10
2023-05-05T13:14:07.757Z,15.20
2023-05-05T13:16:37.291Z,15.20
2023-05-05T13:19:05.417Z,15.20
2023-05-05T13:21:33.625Z,15.20
2023-05-05T13:24:19.055Z,15.20
2023-05-05T13:26:49.618Z,15.00
2023-05-05T13:29:18.051Z,14.90
2023-05-05T13:31:47.635Z,15.00
2023-05-05T13:34:15.695Z,15.00
2023-05-05T13:36:43.774Z,15.00
2023-05-05T13:39:12.624Z,14.90
2023-05-05T13:41:40.776Z,15.00
2023-05-05T13:44:08.824Z,15.00
2023-05-05T13:46:36.976Z,14.90
2023-05-05T13:49:06.476Z,14.90
2023-05-05T13:51:35.542Z,14.90
2023-05-05T13:54:03.973Z,14.90
2023-05-05T13:56:32.164Z,15.00
2023-05-05T13:59:00.898Z,15.00
2023-05-05T14:01:29.180Z,15.00
2023-05-05T14:03:57.977Z,15.10
2023-05-05T14:06:27.807Z,15.00
2023-05-05T14:08:55.971Z,15.00
2023-05-05T14:11:24.361Z,15.00
2023-05-05T14:13:52.799Z,15.00
2023-05-05T14:16:20.816Z,14.70
2023-05-05T14:18:48.981Z,14.80
2023-05-05T14:21:17.088Z,14.90
2023-05-05T14:23:46.574Z,14.70
2023-05-05T14:26:14.625Z,14.70
2023-05-05T14:28:43.535Z,14.70
2023-05-05T14:31:12.009Z,14.60
2023-05-05T14:33:40.185Z,14.60
2023-05-05T14:36:08.911Z,14.70
2023-05-05T14:38:37.034Z,14.70
2023-05-05T14:41:06.766Z,14.80
2023-05-05T14:43:35.640Z,14.70
2023-05-05T14:46:06.852Z,15.00
2023-05-05T14:48:35.544Z,15.10
2023-05-05T14:51:04.266Z,15.10
2023-05-05T14:53:32.427Z,15.10
2023-05-05T14:56:01.351Z,15.00
2023-05-05T14:58:31.099Z,14.90
2023-05-05T15:01:00.405Z,15.20
2023-05-05T15:03:28.603Z,15.20
2023-05-05T15:05:56.881Z,15.10
2023-05-05T15:08:25.165Z,15.20
2023-05-05T15:10:53.283Z,15.50
2023-05-05T15:13:21.423Z,15.30
2023-05-05T15:15:51.361Z,15.60
2023-05-05T15:18:20.056Z,15.50
2023-05-05T15:20:48.108Z,15.60
2023-05-05T15:23:16.263Z,15.50
2023-05-05T15:25:44.417Z,15.70
2023-05-05T15:28:12.516Z,15.40
2023-05-05T15:30:40.631Z,15.50
2023-05-05T15:33:10.051Z,15.70
2023-05-05T15:35:38.561Z,15.50
2023-05-05T15:38:06.653Z,15.40
2023-05-05T15:40:34.860Z,15.50
2023-05-05T15:43:02.900Z,15.60
2023-05-05T15:45:31.047Z,15.60
2023-05-05T15:47:59.229Z,15.50
2023-05-05T15:50:28.717Z,15.30
2023-05-05T15:52:57.364Z,15.20
2023-05-05T15:55:25.624Z,15.10
2023-05-05T15:57:53.720Z,15.40
2023-05-05T16:00:22.383Z,15.50
2023-05-05T16:02:50.903Z,15.50
2023-05-05T16:05:20.724Z,15.60
2023-05-05T16:07:53.623Z,15.60
2023-05-05T16:10:21.987Z,15.60
2023-05-05T16:12:51.980Z,15.60
2023-05-05T16:15:20.339Z,15.60
2023-05-05T16:17:48.431Z,15.70
2023-05-05T16:20:16.964Z,15.80
2023-05-05T16:22:45.048Z,15.70
2023-05-05T16:25:17.442Z,15.70
2023-05-05T16:27:45.501Z,15.60
2023-05-05T16:30:15.421Z,15.70
2023-05-05T16:32:43.961Z,15.80
2023-05-05T16:35:12.193Z,15.80
2023-05-05T16:37:40.240Z,15.90
2023-05-05T16:40:09.644Z,15.90
2023-05-05T16:42:39.125Z,15.80
2023-05-05T16:45:08.897Z,15.80
2023-05-05T16:47:37.362Z,15.80
2023-05-05T16:50:06.336Z,15.70
2023-05-05T16:52:34.481Z,15.70
2023-05-05T16:55:04.769Z,15.60
2023-05-05T16:57:33.267Z,15.60
2023-05-05T17:00:02.657Z,15.60
2023-05-05T17:02:30.746Z,15.70
2023-05-05T17:04:58.917Z,15.70
2023-05-05T17:07:27.081Z,15.70
2023-05-05T17:09:55.197Z,15.70
2023-05-05T17:12:23.658Z,15.80
2023-05-05T17:14:52.308Z,15.70
2023-05-05T17:17:21.817Z,15.80
2023-05-05T17:19:49.990Z,15.70
2023-05-05T17:22:18.195Z,15.80
2023-05-05T17:24:46.503Z,15.70
2023-05-05T17:27:14.592Z,15.80
2023-05-05T17:29:43.186Z,15.70
2023-05-05T17:32:11.513Z,15.70
2023-05-05T17:34:41.205Z,15.70
2023-05-05T17:37:10.110Z,15.70
2023-05-05T17:39:38.301Z,15.70
2023-05-05T17:42:06.594Z,15.70
2023-05-05T17:44:34.692Z,15.60
2023-05-05T17:47:03.920Z,15.70
2023-05-05T17:49:32.024Z,15.60
2023-05-05T17:52:01.579Z,15.60
2023-05-05T17:54:29.874Z,15.60
2023-05-05T17:56:59.541Z,15.60
2023-05-05T17:59:27.641Z,15.60
2023-05-05T18:01:55.722Z,15.60
2023-05-05T18:04:23.951Z,15.60
2023-05-05T18:06:52.084Z,15.60
2023-05-05T18:09:21.461Z,15.50
2023-05-05T18:11:52.324Z,15.50
2023-05-05T18:14:21.177Z,15.40
2023-05-05T18:16:50.783Z,15.50
2023-05-05T18:19:20.408Z,15.40
2023-05-05T18:21:48.696Z,15.40
2023-05-05T18:24:20.485Z,15.40
2023-05-05T18:26:51.641Z,15.40
2023-05-05T18:29:20.122Z,15.40
2023-05-05T18:31:51.476Z,15.40
2023-05-05T18:34:20.545Z,15.30
2023-05-05T18:36:49.271Z,15.30
2023-05-05T18:39:17.924Z,15.20
2023-05-05T18:41:46.136Z,15.10
2023-05-05T18:44:15.725Z,15.10
2023-05-05T18:46:44.140Z,15.10
2023-05-05T18:49:12.305Z,15.00
2023-05-05T18:51:40.503Z,14.90
2023-05-05T18:54:08.712Z,14.90
2023-05-05T18:56:36.887Z,14.80
2023-05-05T18:59:05.709Z,14.80
2023-05-05T19:01:35.150Z,14.70
2023-05-05T19:04:03.246Z,14.60
2023-05-05T19:06:32.348Z,14.50
2023-05-05T19:09:00.515Z,14.50
2023-05-05T19:11:28.623Z,14.40
2023-05-05T19:13:56.748Z,14.40
2023-05-05T19:16:24.848Z,14.30
2023-05-05T19:18:58.655Z,14.30
2023-05-05T19:21:28.508Z,14.20
2023-05-05T19:23:56.679Z,14.20
2023-05-05T19:26:26.245Z,14.10
2023-05-05T19:28:54.432Z,14.10
2023-05-05T19:31:27.528Z,14.10
2023-05-05T19:34:01.678Z,14.00
2023-05-05T19:36:30.032Z,14.00
2023-05-05T19:38:58.794Z,13.90
2023-05-05T19:41:27.088Z,13.80
2023-05-05T19:43:55.204Z,13.80
2023-05-05T19:46:25.595Z,13.70
2023-05-05T19:48:53.773Z,13.70
2023-05-05T19:51:23.708Z,13.70
2023-05-05T19:53:51.863Z,13.60
2023-05-05T19:56:19.937Z,13.60
2023-05-05T19:58:56.168Z,13.50
2023-05-05T20:01:24.472Z,13.50
2023-05-05T20:03:54.332Z,13.40
2023-05-05T20:06:24.150Z,13.40
2023-05-05T20:08:52.475Z,13.40
2023-05-05T20:11:21.252Z,13.30
2023-05-05T20:13:50.964Z,13.30
2023-05-05T20:16:19.451Z,13.20
2023-05-05T20:18:47.676Z,13.20
2023-05-05T20:21:16.620Z,13.10
2023-05-05T20:23:46.623Z,13.10
2023-05-05T20:26:15.141Z,13.10
2023-05-05T20:28:45.248Z,13.10
2023-05-05T20:31:16.204Z,13.00
2023-05-05T20:33:44.349Z,13.00
2023-05-05T20:36:12.595Z,13.00
2023-05-05T20:38:40.669Z,13.00
2023-05-05T20:41:10.146Z,12.90
2023-05-05T20:43:38.426Z,12.90
2023-05-05T20:46:07.164Z,12.90
2023-05-05T20:48:35.369Z,12.90
2023-05-05T20:51:04.837Z,12.90
2023-05-05T20:53:33.458Z,12.90
2023-05-05T20:56:01.601Z,12.80
2023-05-05T20:58:31.117Z,12.70
2023-05-05T21:00:59.618Z,12.70
2023-05-05T21:03:27.768Z,12.70
2023-05-05T21:05:55.896Z,12.70
2023-05-05T21:08:23.931Z,12.60
2023-05-05T21:10:52.043Z,12.60
2023-05-05T21:13:20.235Z,12.60
2023-05-05T21:15:52.114Z,12.50
2023-05-05T21:18:20.380Z,12.50
2023-05-05T21:20:48.508Z,12.50
2023-05-05T21:23:16.572Z,12.50
2023-05-05T21:25:44.645Z,12.40
2023-05-05T21:28:12.714Z,12.40
2023-05-05T21:30:40.837Z,12.40
2023-05-05T21:33:10.298Z,12.40
2023-05-05T21:35:38.805Z,12.40
2023-05-05T21:38:06.969Z,12.40
2023-05-05T21:40:35.175Z,12.30
2023-05-05T21:43:03.210Z,12.30
2023-05-05T21:45:31.257Z,12.30
2023-05-05T21:47:59.418Z,12.30
2023-05-05T21:50:29.566Z,12.20
2023-05-05T21:52:57.752Z,12.20
2023-05-05T21:55:25.932Z,12.20
2023-05-05T21:57:53.993Z,12.20
2023-05-05T22:00:22.271Z,12.10
2023-05-05T22:02:50.437Z,12.00
2023-05-05T22:05:18.827Z,12.10
2023-05-05T22:07:48.291Z,12.10
2023-05-05T22:10:16.667Z,12.20
2023-05-05T22:12:44.867Z,12.20
2023-05-05T22:15:13.106Z,12.20
2023-05-05T22:17:41.508Z,12.20
2023-05-05T22:20:10.592Z,12.10
2023-05-05T22:22:38.856Z,12.20
2023-05-05T22:25:09.508Z,12.20
2023-05-05T22:27:37.783Z,12.20
2023-05-05T22:30:06.926Z,12.20
2023-05-05T22:32:35.038Z,12.20
2023-05-05T22:35:03.189Z,12.20
2023-05-05T22:37:31.546Z,12.30
2023-05-05T22:39:59.667Z,12.30
2023-05-05T22:42:30.342Z,12.30
2023-05-05T22:44:58.432Z,12.30
2023-05-05T22:47:26.574Z,12.30
2023-05-05T22:49:54.817Z,12.30
2023-05-05T22:52:22.966Z,12.30
2023-05-05T22:54:51.020Z,12.20
2023-05-05T22:57:19.080Z,12.20
2023-05-05T22:59:48.586Z,12.20
2023-05-05T23:02:16.684Z,12.20
2023-05-05T23:04:45.492Z,12.20
2023-05-05T23:07:13.818Z,12.20
2023-05-05T23:09:41.916Z,12.20
2023-05-05T23:12:10.019Z,12.10
2023-05-05T23:14:38.154Z,12.10
2023-05-05T23:17:07.653Z,12.10
2023-05-05T23:19:36.084Z,12.00
2023-05-05T23:22:04.807Z,12.00
2023-05-05T23:24:32.893Z,12.00
2023-05-05T23:27:03.013Z,12.00
2023-05-05T23:29:31.171Z,11.90
2023-05-05T23:31:59.314Z,11.90
2023-05-05T23:34:28.678Z,11.90
2023-05-05T23:36:57.185Z,11.90
2023-05-05T23:39:25.225Z,12.00
2023-05-05T23:41:53.317Z,12.00
2023-05-05T23:44:21.353Z,12.00
2023-05-05T23:46:49.447Z,12.00
2023-05-05T23:49:17.501Z,12.00
2023-05-05T23:51:46.968Z,12.00
2023-05-05T23:54:15.075Z,12.00
2023-05-05T23:56:43.182Z,12.00
2023-05-05T23:59:11.243Z,12.10
